sensor_id;sensor_type;location;lat;lon;timestamp;P1;durP1;ratioP1;P2;durP2;ratioP2
71629;SDS011;59479;51.902;8.212;2023-03-11T00:00:22;6.00;;;3.22;;
71629;SDS011;59479;51.902;8.212;2023-03-11T00:02:50;5.05;;;3.30;;
71629;SDS011;59479;51.902;8.212;2023-03-11T00:05:18;4.45;;;2.90;;
71629;SDS011;59479;51.902;8.212;2023-03-11T00:07:46;5.35;;;3.20;;
71629;SDS011;59479;51.902;8.212;2023-03-11T00:10:15;5.07;;;2.60;;
71629;SDS011;59479;51.902;8.212;2023-03-11T00:12:43;5.70;;;2.70;;
71629;SDS011;59479;51.902;8.212;2023-03-11T00:15:08;4.47;;;2.72;;
71629;SDS011;59479;51.902;8.212;2023-03-11T00:17:34;4.77;;;2.50;;
71629;SDS011;59479;51.902;8.212;2023-03-11T00:20:00;4.90;;;2.30;;
71629;SDS011;59479;51.902;8.212;2023-03-11T00:22:25;4.37;;;2.80;;
71629;SDS011;59479;51.902;8.212;2023-03-11T00:24:50;4.90;;;2.57;;
71629;SDS011;59479;51.902;8.212;2023-03-11T00:27:16;5.83;;;3.47;;
71629;SDS011;59479;51.902;8.212;2023-03-11T00:29:41;5.90;;;3.10;;
71629;SDS011;59479;51.902;8.212;2023-03-11T00:32:06;5.37;;;2.60;;
71629;SDS011;59479;51.902;8.212;2023-03-11T00:34:32;4.68;;;3.00;;
71629;SDS011;59479;51.902;8.212;2023-03-11T00:36:57;4.70;;;2.67;;
71629;SDS011;59479;51.902;8.212;2023-03-11T00:39:22;6.73;;;3.10;;
71629;SDS011;59479;51.902;8.212;2023-03-11T00:41:48;4.30;;;2.67;;
71629;SDS011;59479;51.902;8.212;2023-03-11T00:44:14;4.45;;;2.72;;
71629;SDS011;59479;51.902;8.212;2023-03-11T00:46:40;5.27;;;3.03;;
71629;SDS011;59479;51.902;8.212;2023-03-11T00:49:05;4.03;;;2.67;;
71629;SDS011;59479;51.902;8.212;2023-03-11T00:51:31;5.77;;;2.43;;
71629;SDS011;59479;51.902;8.212;2023-03-11T00:53:57;5.20;;;3.13;;
71629;SDS011;59479;51.902;8.212;2023-03-11T00:56:24;4.72;;;2.80;;
71629;SDS011;59479;51.902;8.212;2023-03-11T00:58:50;6.10;;;2.57;;
71629;SDS011;59479;51.902;8.212;2023-03-11T01:01:16;5.57;;;2.50;;
71629;SDS011;59479;51.902;8.212;2023-03-11T01:03:42;5.22;;;2.60;;
71629;SDS011;59479;51.902;8.212;2023-03-11T01:06:08;5.20;;;2.50;;
71629;SDS011;59479;51.902;8.212;2023-03-11T01:08:33;7.60;;;2.38;;
71629;SDS011;59479;51.902;8.212;2023-03-11T01:10:59;6.93;;;2.90;;
71629;SDS011;59479;51.902;8.212;2023-03-11T01:13:25;5.37;;;2.90;;
71629;SDS011;59479;51.902;8.212;2023-03-11T01:15:52;5.85;;;2.55;;
71629;SDS011;59479;51.902;8.212;2023-03-11T01:18:18;6.50;;;2.50;;
71629;SDS011;59479;51.902;8.212;2023-03-11T01:20:44;5.10;;;2.95;;
71629;SDS011;59479;51.902;8.212;2023-03-11T01:23:11;4.55;;;2.50;;
71629;SDS011;59479;51.902;8.212;2023-03-11T01:25:36;5.93;;;3.03;;
71629;SDS011;59479;51.902;8.212;2023-03-11T01:28:02;5.03;;;2.70;;
71629;SDS011;59479;51.902;8.212;2023-03-11T01:30:27;5.07;;;2.90;;
71629;SDS011;59479;51.902;8.212;2023-03-11T01:32:54;4.40;;;2.70;;
71629;SDS011;59479;51.902;8.212;2023-03-11T01:35:21;5.38;;;2.63;;
71629;SDS011;59479;51.902;8.212;2023-03-11T01:37:48;4.80;;;2.72;;
71629;SDS011;59479;51.902;8.212;2023-03-11T01:40:18;6.80;;;2.90;;
71629;SDS011;59479;51.902;8.212;2023-03-11T01:42:48;6.50;;;2.65;;
71629;SDS011;59479;51.902;8.212;2023-03-11T01:48:07;5.22;;;2.83;;
71629;SDS011;59479;51.902;8.212;2023-03-11T01:50:35;4.75;;;2.70;;
71629;SDS011;59479;51.902;8.212;2023-03-11T01:53:02;4.57;;;2.47;;
71629;SDS011;59479;51.902;8.212;2023-03-11T01:55:29;7.50;;;2.70;;
71629;SDS011;59479;51.902;8.212;2023-03-11T01:57:55;5.18;;;2.65;;
71629;SDS011;59479;51.902;8.212;2023-03-11T02:00:21;6.72;;;2.58;;
71629;SDS011;59479;51.902;8.212;2023-03-11T02:05:16;5.40;;;2.73;;
71629;SDS011;59479;51.902;8.212;2023-03-11T02:07:44;5.78;;;3.10;;
71629;SDS011;59479;51.902;8.212;2023-03-11T02:10:11;4.25;;;2.53;;
71629;SDS011;59479;51.902;8.212;2023-03-11T02:12:37;4.20;;;2.65;;
71629;SDS011;59479;51.902;8.212;2023-03-11T02:15:04;4.57;;;2.55;;
71629;SDS011;59479;51.902;8.212;2023-03-11T02:17:31;4.03;;;2.17;;
71629;SDS011;59479;51.902;8.212;2023-03-11T02:22:36;4.63;;;2.97;;
71629;SDS011;59479;51.902;8.212;2023-03-11T02:25:07;3.90;;;2.17;;
71629;SDS011;59479;51.902;8.212;2023-03-11T02:27:40;4.87;;;2.50;;
71629;SDS011;59479;51.902;8.212;2023-03-11T02:30:09;6.97;;;2.60;;
71629;SDS011;59479;51.902;8.212;2023-03-11T02:32:37;4.93;;;2.50;;
71629;SDS011;59479;51.902;8.212;2023-03-11T02:35:03;4.50;;;2.78;;
71629;SDS011;59479;51.902;8.212;2023-03-11T02:37:28;4.90;;;2.40;;
71629;SDS011;59479;51.902;8.212;2023-03-11T02:39:54;5.97;;;2.60;;
71629;SDS011;59479;51.902;8.212;2023-03-11T02:42:39;4.88;;;2.78;;
71629;SDS011;59479;51.902;8.212;2023-03-11T02:45:07;4.97;;;2.73;;
71629;SDS011;59479;51.902;8.212;2023-03-11T02:47:37;3.95;;;2.00;;
71629;SDS011;59479;51.902;8.212;2023-03-11T02:50:04;4.20;;;2.50;;
71629;SDS011;59479;51.902;8.212;2023-03-11T02:52:31;4.32;;;2.15;;
71629;SDS011;59479;51.902;8.212;2023-03-11T02:54:58;4.57;;;2.55;;
71629;SDS011;59479;51.902;8.212;2023-03-11T02:57:23;6.20;;;2.43;;
71629;SDS011;59479;51.902;8.212;2023-03-11T02:59:49;4.97;;;2.50;;
71629;SDS011;59479;51.902;8.212;2023-03-11T03:02:14;6.53;;;2.60;;
71629;SDS011;59479;51.902;8.212;2023-03-11T03:04:39;4.50;;;2.60;;
71629;SDS011;59479;51.902;8.212;2023-03-11T03:07:05;4.17;;;2.53;;
71629;SDS011;59479;51.902;8.212;2023-03-11T03:09:30;7.37;;;2.73;;
71629;SDS011;59479;51.902;8.212;2023-03-11T03:11:56;6.50;;;2.33;;
71629;SDS011;59479;51.902;8.212;2023-03-11T03:14:21;6.17;;;2.87;;
71629;SDS011;59479;51.902;8.212;2023-03-11T03:16:47;6.10;;;2.63;;
71629;SDS011;59479;51.902;8.212;2023-03-11T03:19:12;6.97;;;2.50;;
71629;SDS011;59479;51.902;8.212;2023-03-11T03:21:37;5.10;;;2.70;;
71629;SDS011;59479;51.902;8.212;2023-03-11T03:24:03;5.22;;;2.65;;
71629;SDS011;59479;51.902;8.212;2023-03-11T03:26:28;5.43;;;2.77;;
71629;SDS011;59479;51.902;8.212;2023-03-11T03:28:53;4.80;;;2.63;;
71629;SDS011;59479;51.902;8.212;2023-03-11T03:31:19;5.27;;;2.60;;
71629;SDS011;59479;51.902;8.212;2023-03-11T03:33:44;6.13;;;2.40;;
71629;SDS011;59479;51.902;8.212;2023-03-11T03:36:11;8.20;;;2.40;;
71629;SDS011;59479;51.902;8.212;2023-03-11T03:38:37;4.18;;;2.40;;
71629;SDS011;59479;51.902;8.212;2023-03-11T03:41:03;5.77;;;2.60;;
71629;SDS011;59479;51.902;8.212;2023-03-11T03:43:28;3.67;;;2.20;;
71629;SDS011;59479;51.902;8.212;2023-03-11T03:45:57;5.43;;;2.07;;
71629;SDS011;59479;51.902;8.212;2023-03-11T03:48:24;4.97;;;2.43;;
71629;SDS011;59479;51.902;8.212;2023-03-11T03:50:50;4.40;;;2.60;;
71629;SDS011;59479;51.902;8.212;2023-03-11T03:53:15;4.80;;;1.97;;
71629;SDS011;59479;51.902;8.212;2023-03-11T03:55:41;5.13;;;2.23;;
71629;SDS011;59479;51.902;8.212;2023-03-11T03:58:06;5.70;;;2.13;;
71629;SDS011;59479;51.902;8.212;2023-03-11T04:00:31;5.20;;;2.03;;
71629;SDS011;59479;51.902;8.212;2023-03-11T04:02:58;5.90;;;2.33;;
71629;SDS011;59479;51.902;8.212;2023-03-11T04:05:23;6.80;;;2.30;;
71629;SDS011;59479;51.902;8.212;2023-03-11T04:07:50;4.35;;;2.28;;
71629;SDS011;59479;51.902;8.212;2023-03-11T04:10:16;8.15;;;2.30;;
71629;SDS011;59479;51.902;8.212;2023-03-11T04:12:42;5.20;;;2.10;;
71629;SDS011;59479;51.902;8.212;2023-03-11T04:15:07;5.83;;;2.33;;
71629;SDS011;59479;51.902;8.212;2023-03-11T04:17:33;8.18;;;2.50;;
71629;SDS011;59479;51.902;8.212;2023-03-11T04:19:58;6.37;;;2.27;;
71629;SDS011;59479;51.902;8.212;2023-03-11T04:22:24;5.30;;;1.97;;
71629;SDS011;59479;51.902;8.212;2023-03-11T04:24:49;8.23;;;1.93;;
71629;SDS011;59479;51.902;8.212;2023-03-11T04:27:15;6.28;;;2.50;;
71629;SDS011;59479;51.902;8.212;2023-03-11T04:29:40;4.87;;;1.90;;
71629;SDS011;59479;51.902;8.212;2023-03-11T04:32:05;5.90;;;2.20;;
71629;SDS011;59479;51.902;8.212;2023-03-11T04:34:31;5.30;;;2.40;;
71629;SDS011;59479;51.902;8.212;2023-03-11T04:36:56;4.63;;;2.30;;
71629;SDS011;59479;51.902;8.212;2023-03-11T04:39:21;7.47;;;1.90;;
71629;SDS011;59479;51.902;8.212;2023-03-11T04:41:47;9.77;;;1.90;;
71629;SDS011;59479;51.902;8.212;2023-03-11T04:44:12;5.87;;;1.90;;
71629;SDS011;59479;51.902;8.212;2023-03-11T04:46:38;7.77;;;1.93;;
71629;SDS011;59479;51.902;8.212;2023-03-11T04:49:03;6.20;;;2.00;;
71629;SDS011;59479;51.902;8.212;2023-03-11T04:51:28;9.70;;;4.23;;
71629;SDS011;59479;51.902;8.212;2023-03-11T04:53:54;4.83;;;2.10;;
71629;SDS011;59479;51.902;8.212;2023-03-11T04:56:19;6.63;;;2.23;;
71629;SDS011;59479;51.902;8.212;2023-03-11T04:58:44;5.32;;;2.17;;
71629;SDS011;59479;51.902;8.212;2023-03-11T05:01:10;5.50;;;2.03;;
71629;SDS011;59479;51.902;8.212;2023-03-11T05:03:35;5.30;;;2.00;;
71629;SDS011;59479;51.902;8.212;2023-03-11T05:06:00;7.90;;;2.00;;
71629;SDS011;59479;51.902;8.212;2023-03-11T05:08:26;9.50;;;2.47;;
71629;SDS011;59479;51.902;8.212;2023-03-11T05:10:51;6.17;;;2.77;;
71629;SDS011;59479;51.902;8.212;2023-03-11T05:13:17;7.82;;;2.30;;
71629;SDS011;59479;51.902;8.212;2023-03-11T05:15:44;5.82;;;2.53;;
71629;SDS011;59479;51.902;8.212;2023-03-11T05:18:10;5.17;;;1.70;;
71629;SDS011;59479;51.902;8.212;2023-03-11T05:20:35;4.53;;;2.05;;
71629;SDS011;59479;51.902;8.212;2023-03-11T05:23:01;5.18;;;1.83;;
71629;SDS011;59479;51.902;8.212;2023-03-11T05:25:26;5.90;;;2.33;;
71629;SDS011;59479;51.902;8.212;2023-03-11T05:27:51;4.90;;;2.47;;
71629;SDS011;59479;51.902;8.212;2023-03-11T05:30:17;6.93;;;2.13;;
71629;SDS011;59479;51.902;8.212;2023-03-11T05:32:42;5.40;;;2.40;;
71629;SDS011;59479;51.902;8.212;2023-03-11T05:35:08;6.80;;;1.90;;
71629;SDS011;59479;51.902;8.212;2023-03-11T05:37:34;5.37;;;2.07;;
71629;SDS011;59479;51.902;8.212;2023-03-11T05:40:00;5.40;;;2.40;;
71629;SDS011;59479;51.902;8.212;2023-03-11T05:42:25;7.13;;;2.03;;
71629;SDS011;59479;51.902;8.212;2023-03-11T05:44:50;5.63;;;2.00;;
71629;SDS011;59479;51.902;8.212;2023-03-11T05:47:16;3.47;;;1.55;;
71629;SDS011;59479;51.902;8.212;2023-03-11T05:49:42;5.20;;;2.10;;
71629;SDS011;59479;51.902;8.212;2023-03-11T05:52:07;7.00;;;2.15;;
71629;SDS011;59479;51.902;8.212;2023-03-11T05:54:33;7.97;;;2.27;;
71629;SDS011;59479;51.902;8.212;2023-03-11T05:56:58;5.20;;;2.70;;
71629;SDS011;59479;51.902;8.212;2023-03-11T05:59:24;4.90;;;1.80;;
71629;SDS011;59479;51.902;8.212;2023-03-11T06:01:49;4.88;;;2.40;;
71629;SDS011;59479;51.902;8.212;2023-03-11T06:04:14;7.33;;;2.17;;
71629;SDS011;59479;51.902;8.212;2023-03-11T06:06:40;5.57;;;1.90;;
71629;SDS011;59479;51.902;8.212;2023-03-11T06:09:05;5.23;;;2.03;;
71629;SDS011;59479;51.902;8.212;2023-03-11T06:11:31;6.07;;;2.00;;
71629;SDS011;59479;51.902;8.212;2023-03-11T06:13:56;4.53;;;2.10;;
71629;SDS011;59479;51.902;8.212;2023-03-11T06:16:22;7.17;;;2.40;;
71629;SDS011;59479;51.902;8.212;2023-03-11T06:18:49;6.82;;;2.22;;
71629;SDS011;59479;51.902;8.212;2023-03-11T06:21:16;4.43;;;1.98;;
71629;SDS011;59479;51.902;8.212;2023-03-11T06:23:55;5.93;;;2.10;;
71629;SDS011;59479;51.902;8.212;2023-03-11T06:26:21;9.23;;;3.03;;
71629;SDS011;59479;51.902;8.212;2023-03-11T06:28:47;12.00;;;3.67;;
71629;SDS011;59479;51.902;8.212;2023-03-11T06:31:15;11.35;;;3.20;;
71629;SDS011;59479;51.902;8.212;2023-03-11T06:33:43;7.20;;;2.42;;
71629;SDS011;59479;51.902;8.212;2023-03-11T06:36:09;6.60;;;2.80;;
71629;SDS011;59479;51.902;8.212;2023-03-11T06:38:40;5.80;;;2.20;;
71629;SDS011;59479;51.902;8.212;2023-03-11T06:41:07;6.38;;;2.20;;
71629;SDS011;59479;51.902;8.212;2023-03-11T06:43:32;4.17;;;2.13;;
71629;SDS011;59479;51.902;8.212;2023-03-11T06:46:06;4.35;;;2.13;;
71629;SDS011;59479;51.902;8.212;2023-03-11T06:48:36;5.00;;;2.33;;
71629;SDS011;59479;51.902;8.212;2023-03-11T06:51:05;6.78;;;2.40;;
71629;SDS011;59479;51.902;8.212;2023-03-11T06:53:30;5.83;;;2.40;;
71629;SDS011;59479;51.902;8.212;2023-03-11T06:55:56;5.20;;;2.20;;
71629;SDS011;59479;51.902;8.212;2023-03-11T06:58:32;9.38;;;2.30;;
71629;SDS011;59479;51.902;8.212;2023-03-11T07:01:00;5.22;;;2.58;;
71629;SDS011;59479;51.902;8.212;2023-03-11T07:03:27;4.45;;;2.53;;
71629;SDS011;59479;51.902;8.212;2023-03-11T07:05:53;4.90;;;2.20;;
71629;SDS011;59479;51.902;8.212;2023-03-11T07:08:18;5.53;;;2.60;;
71629;SDS011;59479;51.902;8.212;2023-03-11T07:10:43;4.93;;;1.95;;
71629;SDS011;59479;51.902;8.212;2023-03-11T07:13:09;4.50;;;2.10;;
71629;SDS011;59479;51.902;8.212;2023-03-11T07:15:35;8.07;;;2.80;;
71629;SDS011;59479;51.902;8.212;2023-03-11T07:18:00;5.07;;;2.20;;
71629;SDS011;59479;51.902;8.212;2023-03-11T07:20:25;4.07;;;2.10;;
71629;SDS011;59479;51.902;8.212;2023-03-11T07:22:51;5.38;;;2.50;;
71629;SDS011;59479;51.902;8.212;2023-03-11T07:25:17;4.38;;;1.83;;
71629;SDS011;59479;51.902;8.212;2023-03-11T07:27:42;4.17;;;1.57;;
71629;SDS011;59479;51.902;8.212;2023-03-11T07:30:08;6.77;;;2.10;;
71629;SDS011;59479;51.902;8.212;2023-03-11T07:32:34;5.75;;;2.00;;
71629;SDS011;59479;51.902;8.212;2023-03-11T07:34:59;5.73;;;2.37;;
71629;SDS011;59479;51.902;8.212;2023-03-11T07:37:24;5.87;;;2.33;;
71629;SDS011;59479;51.902;8.212;2023-03-11T07:39:50;5.17;;;2.40;;
71629;SDS011;59479;51.902;8.212;2023-03-11T07:42:15;6.73;;;2.23;;
71629;SDS011;59479;51.902;8.212;2023-03-11T07:44:40;7.37;;;2.40;;
71629;SDS011;59479;51.902;8.212;2023-03-11T07:47:06;8.27;;;2.30;;
71629;SDS011;59479;51.902;8.212;2023-03-11T07:49:31;5.30;;;2.27;;
71629;SDS011;59479;51.902;8.212;2023-03-11T07:51:56;4.47;;;2.00;;
71629;SDS011;59479;51.902;8.212;2023-03-11T07:54:22;7.23;;;1.80;;
71629;SDS011;59479;51.902;8.212;2023-03-11T07:56:47;4.90;;;2.07;;
71629;SDS011;59479;51.902;8.212;2023-03-11T07:59:13;5.67;;;2.07;;
71629;SDS011;59479;51.902;8.212;2023-03-11T08:01:38;4.40;;;2.20;;
71629;SDS011;59479;51.902;8.212;2023-03-11T08:04:07;5.75;;;2.30;;
71629;SDS011;59479;51.902;8.212;2023-03-11T08:06:35;7.18;;;2.65;;
71629;SDS011;59479;51.902;8.212;2023-03-11T08:09:03;7.97;;;2.10;;
71629;SDS011;59479;51.902;8.212;2023-03-11T08:11:31;4.38;;;2.00;;
71629;SDS011;59479;51.902;8.212;2023-03-11T08:13:56;4.63;;;1.77;;
71629;SDS011;59479;51.902;8.212;2023-03-11T08:16:22;6.78;;;2.03;;
71629;SDS011;59479;51.902;8.212;2023-03-11T08:18:48;6.77;;;2.10;;
71629;SDS011;59479;51.902;8.212;2023-03-11T08:21:15;6.70;;;2.22;;
71629;SDS011;59479;51.902;8.212;2023-03-11T08:23:42;4.82;;;1.95;;
71629;SDS011;59479;51.902;8.212;2023-03-11T08:26:10;5.85;;;2.10;;
71629;SDS011;59479;51.902;8.212;2023-03-11T08:28:37;4.73;;;2.00;;
71629;SDS011;59479;51.902;8.212;2023-03-11T08:31:08;5.03;;;1.83;;
71629;SDS011;59479;51.902;8.212;2023-03-11T08:33:36;3.97;;;1.92;;
71629;SDS011;59479;51.902;8.212;2023-03-11T08:36:02;5.80;;;2.00;;
71629;SDS011;59479;51.902;8.212;2023-03-11T08:38:27;4.00;;;1.70;;
71629;SDS011;59479;51.902;8.212;2023-03-11T08:40:52;6.17;;;1.67;;
71629;SDS011;59479;51.902;8.212;2023-03-11T08:43:18;5.90;;;1.97;;
71629;SDS011;59479;51.902;8.212;2023-03-11T08:45:43;5.80;;;1.80;;
71629;SDS011;59479;51.902;8.212;2023-03-11T08:48:09;6.43;;;1.83;;
71629;SDS011;59479;51.902;8.212;2023-03-11T08:50:36;5.70;;;1.80;;
71629;SDS011;59479;51.902;8.212;2023-03-11T08:53:03;4.20;;;2.00;;
71629;SDS011;59479;51.902;8.212;2023-03-11T08:55:28;9.13;;;1.80;;
71629;SDS011;59479;51.902;8.212;2023-03-11T08:57:54;6.53;;;2.33;;
71629;SDS011;59479;51.902;8.212;2023-03-11T09:00:20;4.28;;;2.13;;
71629;SDS011;59479;51.902;8.212;2023-03-11T09:02:46;4.00;;;1.90;;
71629;SDS011;59479;51.902;8.212;2023-03-11T09:05:12;4.00;;;2.28;;
71629;SDS011;59479;51.902;8.212;2023-03-11T09:07:37;4.10;;;2.00;;
71629;SDS011;59479;51.902;8.212;2023-03-11T09:10:03;6.68;;;2.42;;
71629;SDS011;59479;51.902;8.212;2023-03-11T09:12:29;4.03;;;1.40;;
71629;SDS011;59479;51.902;8.212;2023-03-11T09:14:54;5.50;;;2.05;;
71629;SDS011;59479;51.902;8.212;2023-03-11T09:17:20;8.00;;;2.03;;
71629;SDS011;59479;51.902;8.212;2023-03-11T09:19:45;5.20;;;1.60;;
71629;SDS011;59479;51.902;8.212;2023-03-11T09:22:11;4.40;;;1.70;;
71629;SDS011;59479;51.902;8.212;2023-03-11T09:24:36;4.65;;;1.50;;
71629;SDS011;59479;51.902;8.212;2023-03-11T09:27:02;4.32;;;1.92;;
71629;SDS011;59479;51.902;8.212;2023-03-11T09:29:27;3.83;;;1.37;;
71629;SDS011;59479;51.902;8.212;2023-03-11T09:31:53;4.05;;;1.73;;
71629;SDS011;59479;51.902;8.212;2023-03-11T09:34:18;4.40;;;2.00;;
71629;SDS011;59479;51.902;8.212;2023-03-11T09:36:44;3.43;;;1.50;;
71629;SDS011;59479;51.902;8.212;2023-03-11T09:39:10;6.53;;;2.03;;
71629;SDS011;59479;51.902;8.212;2023-03-11T09:47:08;4.50;;;1.80;;
71629;SDS011;59479;51.902;8.212;2023-03-11T09:50:00;6.47;;;1.77;;
71629;SDS011;59479;51.902;8.212;2023-03-11T09:55:42;7.05;;;2.08;;
71629;SDS011;59479;51.902;8.212;2023-03-11T09:58:15;6.47;;;2.03;;
71629;SDS011;59479;51.902;8.212;2023-03-11T10:01:05;4.80;;;2.07;;
71629;SDS011;59479;51.902;8.212;2023-03-11T10:03:39;4.45;;;2.00;;
71629;SDS011;59479;51.902;8.212;2023-03-11T10:08:48;8.70;;;2.27;;
71629;SDS011;59479;51.902;8.212;2023-03-11T10:11:39;3.38;;;1.73;;
71629;SDS011;59479;51.902;8.212;2023-03-11T10:14:28;7.57;;;1.92;;
71629;SDS011;59479;51.902;8.212;2023-03-11T10:19:46;4.60;;;2.00;;
71629;SDS011;59479;51.902;8.212;2023-03-11T10:28:13;4.15;;;1.98;;
71629;SDS011;59479;51.902;8.212;2023-03-11T10:30:44;5.03;;;2.10;;
71629;SDS011;59479;51.902;8.212;2023-03-11T10:36:13;5.60;;;2.00;;
71629;SDS011;59479;51.902;8.212;2023-03-11T10:38:43;5.57;;;1.50;;
71629;SDS011;59479;51.902;8.212;2023-03-11T10:41:14;6.63;;;2.05;;
71629;SDS011;59479;51.902;8.212;2023-03-11T10:43:51;4.78;;;1.75;;
71629;SDS011;59479;51.902;8.212;2023-03-11T10:46:26;3.97;;;1.40;;
71629;SDS011;59479;51.902;8.212;2023-03-11T10:48:52;7.00;;;1.80;;
71629;SDS011;59479;51.902;8.212;2023-03-11T10:51:19;10.23;;;1.60;;
71629;SDS011;59479;51.902;8.212;2023-03-11T10:53:53;6.32;;;1.50;;
71629;SDS011;59479;51.902;8.212;2023-03-11T10:56:25;5.80;;;2.00;;
71629;SDS011;59479;51.902;8.212;2023-03-11T10:58:52;5.03;;;1.80;;
71629;SDS011;59479;51.902;8.212;2023-03-11T11:01:18;4.65;;;1.70;;
71629;SDS011;59479;51.902;8.212;2023-03-11T11:03:49;6.18;;;1.92;;
71629;SDS011;59479;51.902;8.212;2023-03-11T11:06:38;3.92;;;1.60;;
71629;SDS011;59479;51.902;8.212;2023-03-11T11:09:13;3.57;;;1.83;;
71629;SDS011;59479;51.902;8.212;2023-03-11T11:11:40;5.57;;;1.80;;
71629;SDS011;59479;51.902;8.212;2023-03-11T11:14:05;6.10;;;2.00;;
71629;SDS011;59479;51.902;8.212;2023-03-11T11:16:33;5.15;;;1.70;;
71629;SDS011;59479;51.902;8.212;2023-03-11T11:21:35;10.35;;;2.33;;
71629;SDS011;59479;51.902;8.212;2023-03-11T11:24:07;6.40;;;2.63;;
71629;SDS011;59479;51.902;8.212;2023-03-11T11:26:38;4.93;;;1.77;;
71629;SDS011;59479;51.902;8.212;2023-03-11T11:31:45;4.65;;;1.85;;
71629;SDS011;59479;51.902;8.212;2023-03-11T11:34:26;6.10;;;1.70;;
71629;SDS011;59479;51.902;8.212;2023-03-11T11:36:55;6.05;;;2.00;;
71629;SDS011;59479;51.902;8.212;2023-03-11T11:39:22;3.58;;;1.70;;
71629;SDS011;59479;51.902;8.212;2023-03-11T11:41:50;4.63;;;1.60;;
71629;SDS011;59479;51.902;8.212;2023-03-11T11:44:18;7.20;;;1.73;;
71629;SDS011;59479;51.902;8.212;2023-03-11T11:46:54;4.63;;;1.35;;
71629;SDS011;59479;51.902;8.212;2023-03-11T11:49:32;5.38;;;1.65;;
71629;SDS011;59479;51.902;8.212;2023-03-11T11:52:03;4.85;;;1.70;;
71629;SDS011;59479;51.902;8.212;2023-03-11T11:55:02;6.35;;;1.92;;
71629;SDS011;59479;51.902;8.212;2023-03-11T11:57:31;6.40;;;1.60;;
71629;SDS011;59479;51.902;8.212;2023-03-11T11:59:57;7.47;;;1.77;;
71629;SDS011;59479;51.902;8.212;2023-03-11T12:02:45;4.20;;;1.87;;
71629;SDS011;59479;51.902;8.212;2023-03-11T12:10:35;5.80;;;1.52;;
71629;SDS011;59479;51.902;8.212;2023-03-11T12:15:52;4.68;;;1.20;;
71629;SDS011;59479;51.902;8.212;2023-03-11T12:18:47;3.00;;;1.30;;
71629;SDS011;59479;51.902;8.212;2023-03-11T12:21:25;7.00;;;1.60;;
71629;SDS011;59479;51.902;8.212;2023-03-11T12:24:05;3.45;;;1.50;;
71629;SDS011;59479;51.902;8.212;2023-03-11T12:26:45;4.00;;;1.93;;
71629;SDS011;59479;51.902;8.212;2023-03-11T12:31:50;5.20;;;1.90;;
71629;SDS011;59479;51.902;8.212;2023-03-11T12:34:18;7.85;;;1.77;;
71629;SDS011;59479;51.902;8.212;2023-03-11T12:36:45;5.45;;;1.55;;
71629;SDS011;59479;51.902;8.212;2023-03-11T12:44:35;5.00;;;1.70;;
71629;SDS011;59479;51.902;8.212;2023-03-11T12:49:42;5.55;;;1.55;;
71629;SDS011;59479;51.902;8.212;2023-03-11T12:57:31;5.10;;;1.50;;
71629;SDS011;59479;51.902;8.212;2023-03-11T13:06:04;8.05;;;2.22;;
71629;SDS011;59479;51.902;8.212;2023-03-11T13:08:56;4.22;;;1.67;;
71629;SDS011;59479;51.902;8.212;2023-03-11T13:16:45;5.82;;;1.42;;
71629;SDS011;59479;51.902;8.212;2023-03-11T13:21:59;4.50;;;1.50;;
71629;SDS011;59479;51.902;8.212;2023-03-11T13:27:01;2.95;;;1.25;;
71629;SDS011;59479;51.902;8.212;2023-03-11T13:35:27;5.40;;;1.60;;
71629;SDS011;59479;51.902;8.212;2023-03-11T13:38:19;3.77;;;1.63;;
71629;SDS011;59479;51.902;8.212;2023-03-11T13:40:52;6.18;;;1.70;;
71629;SDS011;59479;51.902;8.212;2023-03-11T13:43:19;6.05;;;1.55;;
71629;SDS011;59479;51.902;8.212;2023-03-11T13:46:10;4.45;;;1.60;;
71629;SDS011;59479;51.902;8.212;2023-03-11T13:48:43;4.63;;;1.77;;
71629;SDS011;59479;51.902;8.212;2023-03-11T13:51:16;7.28;;;1.92;;
71629;SDS011;59479;51.902;8.212;2023-03-11T13:53:44;6.10;;;1.50;;
71629;SDS011;59479;51.902;8.212;2023-03-11T13:56:15;5.68;;;1.40;;
71629;SDS011;59479;51.902;8.212;2023-03-11T13:58:42;4.75;;;1.42;;
71629;SDS011;59479;51.902;8.212;2023-03-11T14:01:10;3.80;;;1.17;;
71629;SDS011;59479;51.902;8.212;2023-03-11T14:03:40;3.50;;;1.50;;
71629;SDS011;59479;51.902;8.212;2023-03-11T14:06:07;2.65;;;1.30;;
71629;SDS011;59479;51.902;8.212;2023-03-11T14:08:38;4.72;;;1.50;;
71629;SDS011;59479;51.902;8.212;2023-03-11T14:13:41;7.63;;;1.67;;
71629;SDS011;59479;51.902;8.212;2023-03-11T14:16:18;4.77;;;1.73;;
71629;SDS011;59479;51.902;8.212;2023-03-11T14:18:46;4.40;;;1.38;;
71629;SDS011;59479;51.902;8.212;2023-03-11T14:21:14;4.90;;;1.40;;
71629;SDS011;59479;51.902;8.212;2023-03-11T14:23:51;3.72;;;1.52;;
71629;SDS011;59479;51.902;8.212;2023-03-11T14:26:22;4.03;;;1.30;;
71629;SDS011;59479;51.902;8.212;2023-03-11T14:28:51;4.63;;;1.47;;
71629;SDS011;59479;51.902;8.212;2023-03-11T14:31:29;5.28;;;1.30;;
71629;SDS011;59479;51.902;8.212;2023-03-11T14:33:58;5.55;;;1.83;;
71629;SDS011;59479;51.902;8.212;2023-03-11T14:36:42;3.50;;;1.55;;
71629;SDS011;59479;51.902;8.212;2023-03-11T14:44:43;5.13;;;1.38;;
71629;SDS011;59479;51.902;8.212;2023-03-11T14:50:05;5.47;;;1.92;;
71629;SDS011;59479;51.902;8.212;2023-03-11T14:52:41;5.20;;;1.60;;
71629;SDS011;59479;51.902;8.212;2023-03-11T14:55:19;5.70;;;1.53;;
71629;SDS011;59479;51.902;8.212;2023-03-11T14:57:54;3.25;;;1.65;;
71629;SDS011;59479;51.902;8.212;2023-03-11T15:00:23;7.05;;;1.67;;
71629;SDS011;59479;51.902;8.212;2023-03-11T15:02:57;7.85;;;2.53;;
71629;SDS011;59479;51.902;8.212;2023-03-11T15:05:33;5.38;;;2.00;;
71629;SDS011;59479;51.902;8.212;2023-03-11T15:08:05;5.43;;;2.30;;
71629;SDS011;59479;51.902;8.212;2023-03-11T15:10:31;7.68;;;2.10;;
71629;SDS011;59479;51.902;8.212;2023-03-11T15:13:31;3.33;;;1.60;;
71629;SDS011;59479;51.902;8.212;2023-03-11T15:16:00;5.23;;;2.00;;
71629;SDS011;59479;51.902;8.212;2023-03-11T15:18:31;3.75;;;1.48;;
71629;SDS011;59479;51.902;8.212;2023-03-11T15:21:02;4.47;;;1.60;;
71629;SDS011;59479;51.902;8.212;2023-03-11T15:23:31;3.95;;;1.70;;
71629;SDS011;59479;51.902;8.212;2023-03-11T15:25:58;6.43;;;1.73;;
71629;SDS011;59479;51.902;8.212;2023-03-11T15:28:24;5.97;;;1.80;;
71629;SDS011;59479;51.902;8.212;2023-03-11T15:33:40;4.40;;;1.70;;
71629;SDS011;59479;51.902;8.212;2023-03-11T15:44:25;3.58;;;1.35;;
71629;SDS011;59479;51.902;8.212;2023-03-11T15:46:53;4.33;;;1.40;;
71629;SDS011;59479;51.902;8.212;2023-03-11T15:49:19;3.17;;;1.48;;
71629;SDS011;59479;51.902;8.212;2023-03-11T15:51:44;7.67;;;1.83;;
71629;SDS011;59479;51.902;8.212;2023-03-11T15:54:10;3.53;;;1.57;;
71629;SDS011;59479;51.902;8.212;2023-03-11T15:56:35;3.97;;;1.70;;
71629;SDS011;59479;51.902;8.212;2023-03-11T15:59:01;4.63;;;1.48;;
71629;SDS011;59479;51.902;8.212;2023-03-11T16:01:26;5.70;;;1.70;;
71629;SDS011;59479;51.902;8.212;2023-03-11T16:03:54;4.10;;;1.50;;
71629;SDS011;59479;51.902;8.212;2023-03-11T16:06:19;6.88;;;1.60;;
71629;SDS011;59479;51.902;8.212;2023-03-11T16:08:46;3.83;;;1.37;;
71629;SDS011;59479;51.902;8.212;2023-03-11T16:11:12;3.88;;;1.50;;
71629;SDS011;59479;51.902;8.212;2023-03-11T16:13:38;4.37;;;1.87;;
71629;SDS011;59479;51.902;8.212;2023-03-11T16:16:03;4.43;;;1.90;;
71629;SDS011;59479;51.902;8.212;2023-03-11T16:18:29;4.50;;;2.20;;
71629;SDS011;59479;51.902;8.212;2023-03-11T16:20:54;5.33;;;2.00;;
71629;SDS011;59479;51.902;8.212;2023-03-11T16:23:23;4.82;;;2.00;;
71629;SDS011;59479;51.902;8.212;2023-03-11T16:25:57;5.68;;;2.20;;
71629;SDS011;59479;51.902;8.212;2023-03-11T16:28:25;4.60;;;2.08;;
71629;SDS011;59479;51.902;8.212;2023-03-11T16:30:50;3.97;;;2.00;;
71629;SDS011;59479;51.902;8.212;2023-03-11T16:33:16;5.07;;;2.42;;
71629;SDS011;59479;51.902;8.212;2023-03-11T16:35:41;4.40;;;1.90;;
71629;SDS011;59479;51.902;8.212;2023-03-11T16:38:07;6.70;;;1.93;;